Time;durP1;ratioP1;P1;durP2;ratioP2;P2;SDS_P1;SDS_P2;PMS_P1;PMS_P2;Temp;Humidity;BMP_temperature;BMP_pressure;BME280_temperature;BME280_humidity;BME280_pressure;Samples;Min_cycle;Max_cycle;Signal;HPM_P1;HPM_P2
2022/01/24 00:01:38;;;;;;;1999.90;999.90;;;5.60;99.90;;;;;;5071903;28;20410;-75
2022/01/24 00:04:04;;;;;;;1999.90;999.90;;;5.60;99.90;;;;;;5071885;28;20492;-75
2022/01/24 00:06:32;;;;;;;1999.90;999.90;;;5.60;99.90;;;;;;5071800;28;21283;-75
2022/01/24 00:08:58;;;;;;;1999.90;999.90;;;5.60;99.90;;;;;;5072680;28;20257;-75
2022/01/24 00:11:29;;;;;;;1999.90;999.90;;;5.50;99.90;;;;;;5076100;28;20401;-75
2022/01/24 00:14:34;;;;;;;1999.90;999.90;;;5.50;99.90;;;;;;5075986;28;20470;-75
2022/01/24 00:27:07;;;;;;;1999.90;999.90;;;5.30;99.90;;;;;;5075836;28;20666;-75
2022/01/24 00:29:32;;;;;;;1999.90;999.90;;;5.10;99.90;;;;;;5075697;28;20398;-75
2022/01/24 00:31:58;;;;;;;1999.90;999.90;;;5.00;99.90;;;;;;5075597;28;20163;-75
2022/01/24 00:34:23;;;;;;;1999.90;999.90;;;5.10;99.90;;;;;;5075560;28;20167;-75
2022/01/24 00:36:51;;;;;;;1999.90;999.90;;;5.00;99.90;;;;;;5075429;28;20195;-75
2022/01/24 00:39:17;;;;;;;1999.90;999.90;;;4.80;99.90;;;;;;5075491;28;20173;-75
2022/01/24 00:46:53;;;;;;;1999.90;999.90;;;4.70;99.90;;;;;;5075379;28;20240;-75
2022/01/24 00:54:47;;;;;;;1999.90;999.90;;;4.50;99.90;;;;;;5075013;28;20412;-75
2022/01/24 00:57:13;;;;;;;1999.90;999.90;;;4.60;99.90;;;;;;5075194;28;20163;-76
2022/01/24 00:59:39;;;;;;;1999.90;999.90;;;4.50;99.90;;;;;;5075032;28;20540;-75
2022/01/24 01:02:06;;;;;;;1999.90;999.90;;;4.40;99.90;;;;;;5057148;28;20258;-75
2022/01/24 01:04:44;;;;;;;1999.90;999.90;;;4.30;99.90;;;;;;5074978;28;20639;-75
2022/01/24 01:07:10;;;;;;;1999.90;999.90;;;4.30;99.90;;;;;;5074898;28;20440;-75
2022/01/24 01:18:14;;;;;;;1999.90;999.90;;;4.30;99.90;;;;;;5075093;28;20424;-76
2022/01/24 01:23:14;;;;;;;1999.90;999.90;;;4.10;99.90;;;;;;5074989;28;20143;-75
2022/01/24 01:25:42;;;;;;;1999.90;999.90;;;4.20;99.90;;;;;;5074429;28;20290;-75
2022/01/24 01:28:07;;;;;;;1999.90;999.90;;;4.20;99.90;;;;;;5074577;28;20691;-75
2022/01/24 01:30:40;;;;;;;1999.90;999.90;;;4.10;99.90;;;;;;5074541;28;20245;-75
2022/01/24 01:33:15;;;;;;;1999.90;999.90;;;4.10;99.90;;;;;;5074546;28;20385;-75
2022/01/24 01:37:00;;;;;;;1999.90;999.90;;;4.00;99.90;;;;;;5074328;28;20187;-75
2022/01/24 01:39:17;;;;;;;1999.90;999.90;;;4.00;99.90;;;;;;5056557;28;20198;-75
2022/01/24 01:52:58;;;;;;;1999.90;999.90;;;3.70;99.90;;;;;;5074214;28;20177;-75
2022/01/24 01:57:57;;;;;;;1999.90;999.90;;;3.60;99.90;;;;;;5074338;28;20163;-75
2022/01/24 02:00:22;;;;;;;1999.90;999.90;;;3.60;99.90;;;;;;5073948;28;20561;-74
2022/01/24 02:02:48;;;;;;;1999.90;999.90;;;3.70;99.90;;;;;;5073913;28;20171;-74
2022/01/24 02:05:15;;;;;;;1999.90;999.90;;;3.70;99.90;;;;;;5073389;28;20195;-74
2022/01/24 02:07:50;;;;;;;1999.90;999.90;;;3.70;99.90;;;;;;5073658;28;20195;-74
2022/01/24 02:10:18;;;;;;;1999.90;999.90;;;3.60;99.90;;;;;;5073759;28;20516;-74
2022/01/24 02:12:44;;;;;;;1999.90;999.90;;;3.60;99.90;;;;;;5073718;28;20171;-74
2022/01/24 02:15:12;;;;;;;1999.90;999.90;;;3.60;99.90;;;;;;5073250;28;20194;-74
2022/01/24 02:20:26;;;;;;;1999.90;999.90;;;3.50;99.90;;;;;;5073866;28;20147;-75
2022/01/24 02:23:16;;;;;;;1999.90;999.90;;;3.50;99.90;;;;;;5073825;28;20670;-75
2022/01/24 02:25:38;;;;;;;1999.90;999.90;;;3.50;99.90;;;;;;5073169;28;20758;-75
2022/01/24 02:28:05;;;;;;;1999.90;999.90;;;3.50;99.90;;;;;;5073378;28;20664;-75
2022/01/24 02:33:02;;;;;;;1999.90;999.90;;;3.50;99.90;;;;;;5072768;28;20155;-75
2022/01/24 02:35:28;;;;;;;1999.90;999.90;;;3.50;99.90;;;;;;5073174;28;20197;-75
2022/01/24 02:37:55;;;;;;;1999.90;999.90;;;3.40;99.90;;;;;;5073216;28;20202;-75
2022/01/24 02:40:22;;;;;;;1999.90;999.90;;;3.30;99.90;;;;;;5073217;28;20171;-75
2022/01/24 02:48:26;;;;;;;1999.90;999.90;;;3.20;99.90;;;;;;5073128;28;20797;-75
2022/01/24 02:53:25;;;;;;;1999.90;999.90;;;3.20;99.90;;;;;;5072887;28;20171;-74
2022/01/24 02:55:51;;;;;;;1999.90;999.90;;;3.20;99.90;;;;;;5072568;28;20210;-74
2022/01/24 02:58:17;;;;;;;1999.90;999.90;;;3.10;99.90;;;;;;5072819;28;20405;-73
2022/01/24 03:00:45;;;;;;;1999.90;999.90;;;3.10;99.90;;;;;;5072809;28;20213;-74
2022/01/24 03:03:11;;;;;;;1999.90;999.90;;;3.10;99.90;;;;;;5072601;28;20413;-74
2022/01/24 03:05:37;;;;;;;1999.90;999.90;;;3.10;99.90;;;;;;5072231;28;20206;-73
2022/01/24 03:08:03;;;;;;;1999.90;999.90;;;3.20;99.90;;;;;;5072554;28;20170;-74
2022/01/24 03:10:37;;;;;;;1999.90;999.90;;;3.20;99.90;;;;;;5072708;28;20190;-74
2022/01/24 03:15:48;;;;;;;1999.90;999.90;;;3.20;99.90;;;;;;5072199;28;20198;-74
2022/01/24 03:18:15;;;;;;;1999.90;999.90;;;3.00;99.90;;;;;;5072436;28;20631;-74
2022/01/24 03:20:41;;;;;;;1999.90;999.90;;;2.90;99.90;;;;;;5072345;28;20321;-74
2022/01/24 03:23:08;;;;;;;1999.90;999.90;;;2.90;99.90;;;;;;5072308;28;20543;-74
2022/01/24 03:25:34;;;;;;;1999.90;999.90;;;2.80;99.90;;;;;;5071875;28;20187;-74
2022/01/24 03:27:59;;;;;;;1999.90;999.90;;;2.80;99.90;;;;;;5072207;28;20213;-74
2022/01/24 03:30:25;;;;;;;1999.90;999.90;;;2.80;99.90;;;;;;5072253;28;20159;-74
2022/01/24 03:32:51;;;;;;;1999.90;999.90;;;2.80;99.90;;;;;;5072254;28;20197;-74
2022/01/24 03:35:17;;;;;;;1999.90;999.90;;;2.80;99.90;;;;;;5071821;28;20187;-74
2022/01/24 03:37:43;;;;;;;1999.90;999.90;;;2.80;99.90;;;;;;5072168;28;20178;-74
2022/01/24 03:40:09;;;;;;;1999.90;999.90;;;2.80;99.90;;;;;;5072133;28;20163;-74
2022/01/24 03:42:35;;;;;;;1999.90;999.90;;;2.80;99.90;;;;;;5071987;28;20177;-74
2022/01/24 03:45:04;;;;;;;1999.90;999.90;;;2.80;99.90;;;;;;5071690;28;20214;-74
2022/01/24 03:50:17;;;;;;;1999.90;999.90;;;2.90;99.90;;;;;;5072193;28;20152;-74
2022/01/24 03:52:46;;;;;;;1999.90;999.90;;;2.80;99.90;;;;;;5072066;28;20163;-74
2022/01/24 03:55:12;;;;;;;1999.90;999.90;;;2.80;99.90;;;;;;5085940;22;20207;-72
2022/01/24 03:57:39;;;;;;;1999.90;999.90;;;2.80;99.90;;;;;;5071221;28;20191;-72
2022/01/24 04:00:07;;;;;;;1999.90;999.90;;;2.70;99.90;;;;;;5071850;28;20627;-71
2022/01/24 04:02:33;;;;;;;1999.90;999.90;;;2.70;99.90;;;;;;5071836;28;20545;-72
2022/01/24 04:04:59;;;;;;;1999.90;999.90;;;2.70;99.90;;;;;;5071630;28;20258;-72
2022/01/24 04:07:24;;;;;;;1999.90;999.90;;;2.70;99.90;;;;;;5071896;28;20246;-72
2022/01/24 04:09:50;;;;;;;1999.90;999.90;;;2.70;99.90;;;;;;5071859;28;20169;-71
2022/01/24 04:12:16;;;;;;;1999.90;999.90;;;2.70;99.90;;;;;;5071717;28;20242;-72
2022/01/24 04:22:30;;;;;;;1999.90;999.90;;;2.60;99.90;;;;;;5071759;28;20163;-71
2022/01/24 04:25:00;;;;;;;1999.90;999.90;;;2.60;99.90;;;;;;5071347;28;20669;-72
2022/01/24 04:27:27;;;;;;;1999.90;999.90;;;2.60;99.90;;;;;;5053703;28;20175;-72
2022/01/24 04:29:53;;;;;;;1999.90;999.90;;;2.50;99.90;;;;;;5071597;28;20163;-73
2022/01/24 04:32:19;;;;;;;1999.90;999.90;;;2.50;99.90;;;;;;5071586;28;20281;-73
2022/01/24 04:34:45;;;;;;;1999.90;999.90;;;2.50;99.90;;;;;;5071298;28;20813;-73
2022/01/24 04:37:11;;;;;;;1999.90;999.90;;;2.50;99.90;;;;;;5071469;28;20269;-72
2022/01/24 04:39:37;;;;;;;1999.90;999.90;;;2.60;99.90;;;;;;5071486;28;20406;-72
2022/01/24 04:42:10;;;;;;;1999.90;999.90;;;2.60;99.90;;;;;;5071393;28;20679;-73
2022/01/24 04:44:55;;;;;;;1999.90;999.90;;;2.60;99.90;;;;;;5071195;28;20175;-72
2022/01/24 04:47:30;;;;;;;1999.90;999.90;;;2.60;99.90;;;;;;5071525;28;20225;-73
2022/01/24 04:55:06;;;;;;;1999.90;999.90;;;2.60;99.90;;;;;;5071907;28;20257;-73
2022/01/24 04:57:31;;;;;;;1999.90;999.90;;;2.60;99.90;;;;;;5075101;28;20181;-73
2022/01/24 04:59:59;;;;;;;1999.90;999.90;;;2.60;99.90;;;;;;5075066;28;20171;-73
2022/01/24 05:02:26;;;;;;;1999.90;999.90;;;2.60;99.90;;;;;;5075010;28;20163;-73
2022/01/24 05:04:53;;;;;;;1999.90;999.90;;;2.60;99.90;;;;;;5074685;28;20163;-73
2022/01/24 05:07:20;;;;;;;1999.90;999.90;;;2.60;99.90;;;;;;5074737;28;20217;-73
2022/01/24 05:23:33;;;;;;;1999.90;999.90;;;2.40;99.90;;;;;;5074732;28;20196;-72
2022/01/24 05:26:01;;;;;;;1999.90;999.90;;;2.40;99.90;;;;;;5074250;28;20198;-73
2022/01/24 05:28:28;;;;;;;1999.90;999.90;;;2.40;99.90;;;;;;5074488;28;20198;-73
2022/01/24 05:30:54;;;;;;;1999.90;999.90;;;2.50;99.90;;;;;;5074479;28;20163;-74
2022/01/24 05:33:20;;;;;;;1999.90;999.90;;;2.40;99.90;;;;;;5074511;28;20636;-73
2022/01/24 05:35:45;;;;;;;1999.90;999.90;;;2.40;99.90;;;;;;5074136;28;20436;-73
2022/01/24 05:38:11;;;;;;;1999.90;999.90;;;2.40;99.90;;;;;;5074340;28;20167;-74
2022/01/24 05:40:38;;;;;;;1999.90;999.90;;;2.40;99.90;;;;;;5074342;28;20174;-73
2022/01/24 05:43:06;;;;;;;1999.90;999.90;;;2.40;99.90;;;;;;5074333;28;20171;-72
2022/01/24 05:45:33;;;;;;;1999.90;999.90;;;2.40;99.90;;;;;;5073849;28;20205;-72
2022/01/24 05:47:59;;;;;;;1999.90;999.90;;;2.30;99.90;;;;;;5074268;28;20209;-72
2022/01/24 05:50:24;;;;;;;1999.90;999.90;;;2.40;99.90;;;;;;5074389;28;20190;-74
2022/01/24 05:52:50;;;;;;;1999.90;999.90;;;2.40;99.90;;;;;;5074261;28;20236;-74
2022/01/24 05:55:16;;;;;;;1999.90;999.90;;;2.40;99.90;;;;;;5073878;28;20581;-73
2022/01/24 05:57:42;;;;;;;1999.90;999.90;;;2.40;99.90;;;;;;5074050;28;20163;-74
2022/01/24 06:00:10;;;;;;;1999.90;999.90;;;2.40;99.90;;;;;;5074189;28;20500;-74
2022/01/24 06:02:35;;;;;;;1999.90;999.90;;;2.40;99.90;;;;;;5074149;28;20657;-74
2022/01/24 06:05:01;;;;;;;1999.90;999.90;;;2.40;99.90;;;;;;5073822;28;20198;-74
2022/01/24 06:07:28;;;;;;;1999.90;999.90;;;2.40;99.90;;;;;;5074280;28;20262;-73
2022/01/24 06:09:53;;;;;;;1999.90;999.90;;;2.40;99.90;;;;;;5074038;28;20402;-73
2022/01/24 06:12:19;;;;;;;1999.90;999.90;;;2.50;99.90;;;;;;5074057;28;20205;-73
2022/01/24 06:14:45;;;;;;;1999.90;999.90;;;2.50;99.90;;;;;;5073787;28;20170;-72
2022/01/24 06:17:11;;;;;;;1999.90;999.90;;;2.50;99.90;;;;;;5073635;28;20183;-72
2022/01/24 06:19:37;;;;;;;1999.90;999.90;;;2.50;99.90;;;;;;5073702;28;20178;-72
2022/01/24 06:22:03;;;;;;;1999.90;999.90;;;2.40;99.90;;;;;;5073473;28;20248;-72
2022/01/24 06:24:29;;;;;;;1999.90;999.90;;;2.40;99.90;;;;;;5073143;28;20237;-72
2022/01/24 06:26:54;;;;;;;1999.90;999.90;;;2.40;99.90;;;;;;5073446;28;20445;-72
2022/01/24 06:29:20;;;;;;;1999.90;999.90;;;2.40;99.90;;;;;;5073555;28;20236;-73
2022/01/24 06:31:45;;;;;;;1999.90;999.90;;;2.30;99.90;;;;;;5073366;28;20171;-72
2022/01/24 06:34:11;;;;;;;1999.90;999.90;;;2.30;99.90;;;;;;5073183;28;20163;-72
2022/01/24 06:36:37;;;;;;;1999.90;999.90;;;2.20;99.90;;;;;;5073217;28;20649;-72
2022/01/24 06:39:04;;;;;;;1999.90;999.90;;;2.20;99.90;;;;;;5073063;28;20178;-73
2022/01/24 06:41:33;;;;;;;1999.90;999.90;;;2.30;99.90;;;;;;5073138;28;20623;-73
2022/01/24 06:43:59;;;;;;;1999.90;999.90;;;2.30;99.90;;;;;;5055036;28;20175;-75
2022/01/24 06:46:25;;;;;;;1999.90;999.90;;;2.20;99.90;;;;;;5072884;28;20726;-72
2022/01/24 06:48:51;;;;;;;1999.90;999.90;;;2.10;99.90;;;;;;5073050;28;20492;-74
2022/01/24 06:51:20;;;;;;;1999.90;999.90;;;2.20;99.90;;;;;;5073529;28;20406;-74
2022/01/24 06:53:47;;;;;;;1999.90;999.90;;;2.10;99.90;;;;;;5073492;28;20401;-73
2022/01/24 06:56:14;;;;;;;1999.90;999.90;;;2.10;99.90;;;;;;5073068;28;20245;-73
2022/01/24 06:58:40;;;;;;;1999.90;999.90;;;2.20;99.90;;;;;;5073274;28;20258;-74
2022/01/24 07:01:07;;;;;;;1999.90;999.90;;;2.10;99.90;;;;;;5073336;28;20214;-74
2022/01/24 07:03:33;;;;;;;1999.90;999.90;;;2.10;99.90;;;;;;5073124;28;20419;-73
2022/01/24 07:05:59;;;;;;;1999.90;999.90;;;2.20;99.90;;;;;;5072881;28;20217;-73
2022/01/24 07:08:25;;;;;;;1999.90;999.90;;;2.20;99.90;;;;;;5073044;28;20254;-74
2022/01/24 07:10:51;;;;;;;1999.90;999.90;;;2.20;99.90;;;;;;5072991;28;20238;-72
2022/01/24 07:13:17;;;;;;;1999.90;999.90;;;2.10;99.90;;;;;;5072917;28;20551;-72
2022/01/24 07:15:53;;;;;;;1999.90;999.90;;;2.10;99.90;;;;;;5072596;28;20194;-74
2022/01/24 07:20:58;;;;;;;1999.90;999.90;;;2.10;99.90;;;;;;5072765;28;20195;-74
2022/01/24 07:23:24;;;;;;;1999.90;999.90;;;2.00;99.90;;;;;;5073042;28;20197;-74
2022/01/24 07:25:50;;;;;;;1999.90;999.90;;;2.10;99.90;;;;;;5072455;28;20195;-73
2022/01/24 07:28:17;;;;;;;1999.90;999.90;;;2.00;99.90;;;;;;5073012;28;20186;-73
2022/01/24 07:30:43;;;;;;;1999.90;999.90;;;1.90;99.90;;;;;;5072726;28;20937;-74
2022/01/24 07:33:09;;;;;;;1999.90;999.90;;;1.90;99.90;;;;;;5072865;28;20169;-73
2022/01/24 07:35:35;;;;;;;1999.90;999.90;;;1.90;99.90;;;;;;5072295;28;20191;-72
2022/01/24 07:38:02;;;;;;;1999.90;999.90;;;1.80;99.90;;;;;;5072713;28;20182;-73
2022/01/24 07:40:28;;;;;;;1999.90;999.90;;;1.80;99.90;;;;;;5072598;28;20408;-74
2022/01/24 07:43:09;;;;;;;1999.90;999.90;;;1.80;99.90;;;;;;5072435;28;20167;-72
2022/01/24 07:45:36;;;;;;;1999.90;999.90;;;1.80;99.90;;;;;;5071666;28;20459;-71
2022/01/24 07:48:03;;;;;;;1999.90;999.90;;;1.80;99.90;;;;;;5072119;28;20687;-72
2022/01/24 07:50:29;;;;;;;1999.90;999.90;;;1.90;99.90;;;;;;5072102;28;20202;-72
2022/01/24 07:52:55;;;;;;;1999.90;999.90;;;1.90;99.90;;;;;;5072056;28;20174;-72
2022/01/24 07:55:22;;;;;;;1999.90;999.90;;;1.90;99.90;;;;;;5071493;28;20194;-72
2022/01/24 07:57:49;;;;;;;1999.90;999.90;;;2.00;99.90;;;;;;5071961;28;20163;-72
2022/01/24 08:00:15;;;;;;;1999.90;999.90;;;2.10;99.90;;;;;;5071960;28;20169;-72
2022/01/24 08:02:41;;;;;;;1999.90;999.90;;;2.10;99.90;;;;;;5071872;28;20259;-72
2022/01/24 08:05:08;;;;;;;1999.90;999.90;;;2.10;99.90;;;;;;5071572;28;20212;-72
2022/01/24 08:07:34;;;;;;;1999.90;999.90;;;2.20;99.90;;;;;;5071853;28;20258;-72
2022/01/24 08:09:59;;;;;;;1999.90;999.90;;;2.10;99.90;;;;;;5071926;28;20764;-71
2022/01/24 08:12:25;;;;;;;1999.90;999.90;;;2.30;99.90;;;;;;5071757;28;20462;-72
2022/01/24 08:14:51;;;;;;;1999.90;999.90;;;2.30;99.90;;;;;;5071573;28;20159;-72
2022/01/24 08:17:18;;;;;;;1999.90;999.90;;;2.30;99.90;;;;;;5071634;28;20433;-72
2022/01/24 08:19:44;;;;;;;1999.90;999.90;;;2.40;99.90;;;;;;5071678;28;20401;-72
2022/01/24 08:22:12;;;;;;;1999.90;999.90;;;2.40;99.90;;;;;;5071723;28;20167;-71
2022/01/24 08:24:37;;;;;;;1999.90;999.90;;;2.50;99.90;;;;;;5071265;28;20405;-72
2022/01/24 08:27:03;;;;;;;1999.90;999.90;;;2.50;99.90;;;;;;5071591;28;20218;-71
2022/01/24 08:29:29;;;;;;;1999.90;999.90;;;2.60;99.90;;;;;;5071659;28;20553;-72
2022/01/24 08:31:55;;;;;;;1999.90;999.90;;;2.70;99.90;;;;;;5075667;28;20496;-71
2022/01/24 08:34:20;;;;;;;1999.90;999.90;;;2.70;99.90;;;;;;5075302;28;20854;-72
2022/01/24 08:36:47;;;;;;;1999.90;999.90;;;2.90;99.90;;;;;;5075430;28;20191;-72
2022/01/24 08:39:13;;;;;;;1999.90;999.90;;;3.00;99.90;;;;;;5075470;28;20547;-72
2022/01/24 08:41:44;;;;;;;1999.90;999.90;;;3.10;99.90;;;;;;5075426;28;20171;-72
2022/01/24 08:44:19;;;;;;;1999.90;999.90;;;3.10;99.90;;;;;;5057349;28;20175;-72
2022/01/24 08:46:46;;;;;;;1999.90;999.90;;;3.10;99.90;;;;;;5075282;28;20238;-72
2022/01/24 08:49:12;;;;;;;1999.90;999.90;;;3.20;99.90;;;;;;5075332;28;20553;-72
2022/01/24 08:51:38;;;;;;;1999.90;999.90;;;3.20;99.90;;;;;;5075216;28;20167;-72
2022/01/24 08:54:05;;;;;;;1999.90;999.90;;;3.30;99.90;;;;;;5074790;28;20405;-72
2022/01/24 08:56:31;;;;;;;1999.90;999.90;;;3.30;99.90;;;;;;5074932;28;20211;-72
2022/01/24 08:58:57;;;;;;;1999.90;999.90;;;3.50;99.90;;;;;;5075096;28;20179;-72
2022/01/24 09:01:23;;;;;;;1999.90;999.90;;;3.50;99.90;;;;;;5075166;28;20515;-72
2022/01/24 09:03:48;;;;;;;1999.90;999.90;;;3.50;99.90;;;;;;5075636;28;20201;-74
2022/01/24 09:06:17;;;;;;;1999.90;999.90;;;3.60;99.90;;;;;;5075148;28;20986;-74
2022/01/24 09:08:43;;;;;;;1999.90;999.90;;;3.60;99.90;;;;;;5075586;28;20242;-74
2022/01/24 09:11:09;;;;;;;1999.90;999.90;;;3.60;99.90;;;;;;5075906;28;20244;-74
2022/01/24 09:13:34;;;;;;;1999.90;999.90;;;3.70;99.90;;;;;;5076068;28;20205;-73
2022/01/24 09:16:01;;;;;;;1999.90;999.90;;;3.70;99.90;;;;;;5075587;28;20626;-74
2022/01/24 09:18:28;;;;;;;1999.90;999.90;;;3.70;99.90;;;;;;5072873;28;20193;-73
2022/01/24 09:20:53;;;;;;;1999.90;999.90;;;3.80;99.90;;;;;;5074566;28;20799;-72
2022/01/24 09:23:22;;;;;;;1999.90;999.90;;;3.80;99.90;;;;;;5074590;28;20246;-74
2022/01/24 09:25:48;;;;;;;1999.90;999.90;;;3.90;99.90;;;;;;5074072;28;20211;-73
2022/01/24 09:28:14;;;;;;;1999.90;999.90;;;4.10;99.90;;;;;;5070808;28;20176;-73
2022/01/24 09:30:39;;;;;;;1999.90;999.90;;;4.10;99.90;;;;;;5073979;28;20660;-73
2022/01/24 09:33:05;;;;;;;1999.90;999.90;;;4.10;99.90;;;;;;5073814;28;20175;-74
2022/01/24 09:35:32;;;;;;;1999.90;999.90;;;4.20;99.90;;;;;;5073249;28;20225;-73
2022/01/24 09:37:57;;;;;;;1999.90;999.90;;;4.30;99.90;;;;;;5073275;28;20186;-73
2022/01/24 09:40:23;;;;;;;1999.90;999.90;;;4.30;99.90;;;;;;5055916;28;20629;-73
2022/01/24 09:42:49;;;;;;;1999.90;999.90;;;4.40;99.90;;;;;;5073453;28;20193;-73
2022/01/24 09:45:17;;;;;;;1999.90;999.90;;;4.50;99.90;;;;;;5074258;28;20174;-73
2022/01/24 09:47:43;;;;;;;1999.90;999.90;;;4.50;99.90;;;;;;5073964;28;20891;-72
2022/01/24 09:50:12;;;;;;;1999.90;999.90;;;4.60;99.90;;;;;;5073431;28;20185;-74
2022/01/24 09:52:40;;;;;;;1999.90;999.90;;;4.70;99.90;;;;;;5039696;28;20179;-73
2022/01/24 09:55:06;;;;;;;1999.90;999.90;;;4.80;99.90;;;;;;5060859;28;20187;-73
2022/01/24 09:57:32;;;;;;;1999.90;999.90;;;4.90;99.90;;;;;;5088085;23;20219;-75
2022/01/24 09:59:58;;;;;;;1999.90;999.90;;;4.90;99.90;;;;;;5041559;28;20176;-75
2022/01/24 10:02:25;;;;;;;1999.90;999.90;;;5.00;99.90;;;;;;5033410;28;20226;-75
2022/01/24 10:04:51;;;;;;;1999.90;999.90;;;5.10;99.90;;;;;;5050116;28;20167;-77
2022/01/24 10:07:16;;;;;;;1999.90;999.90;;;5.10;99.90;;;;;;5040056;28;20255;-75
2022/01/24 10:09:49;;;;;;;1999.90;999.90;;;5.20;99.90;;;;;;5029581;28;20200;-74
2022/01/24 10:17:40;;;;;;;1999.90;999.90;;;5.50;99.90;;;;;;5028680;28;20728;-76
2022/01/24 10:20:15;;;;;;;1999.90;999.90;;;5.50;99.90;;;;;;5032691;28;20184;-75
2022/01/24 10:22:41;;;;;;;1999.90;999.90;;;5.60;99.90;;;;;;5033131;28;20485;-76
2022/01/24 10:25:09;;;;;;;1999.90;999.90;;;5.60;99.90;;;;;;5032879;28;20302;-74
2022/01/24 10:27:35;;;;;;;1999.90;999.90;;;5.60;99.90;;;;;;5032332;28;20231;-75
2022/01/24 10:30:08;;;;;;;1999.90;999.90;;;5.70;99.90;;;;;;5032709;28;20200;-75
2022/01/24 10:32:36;;;;;;;1999.90;999.90;;;5.80;99.90;;;;;;5025829;28;20176;-76
2022/01/24 10:35:22;;;;;;;1999.90;999.90;;;5.90;99.90;;;;;;5031224;28;20563;-74
2022/01/24 10:37:52;;;;;;;1999.90;999.90;;;5.80;99.90;;;;;;5032413;28;20505;-77
2022/01/24 10:40:51;;;;;;;1999.90;999.90;;;5.90;99.90;;;;;;5032659;28;20165;-75
2022/01/24 10:43:28;;;;;;;1999.90;999.90;;;5.90;99.90;;;;;;5032438;28;20487;-75
2022/01/24 10:45:56;;;;;;;1999.90;999.90;;;6.00;99.90;;;;;;5032194;28;20206;-75
2022/01/24 10:48:25;;;;;;;1999.90;999.90;;;6.20;99.90;;;;;;5032287;28;20501;-75
2022/01/24 10:51:07;;;;;;;1999.90;999.90;;;6.30;99.90;;;;;;5031836;28;20407;-74
2022/01/24 10:53:39;;;;;;;1999.90;999.90;;;6.40;99.90;;;;;;5031721;28;20407;-74
2022/01/24 10:56:38;;;;;;;1999.90;999.90;;;6.50;99.90;;;;;;5031894;28;20406;-74
2022/01/24 10:59:04;;;;;;;1999.90;999.90;;;6.50;99.90;;;;;;5032269;28;20418;-74
2022/01/24 11:01:30;;;;;;;1999.90;999.90;;;6.60;99.90;;;;;;5032346;28;20403;-75
2022/01/24 11:04:04;;;;;;;1999.90;999.90;;;6.80;99.90;;;;;;5032383;28;20650;-73
2022/01/24 11:06:32;;;;;;;1999.90;999.90;;;6.80;99.90;;;;;;5039003;28;20669;-74
2022/01/24 11:09:23;;;;;;;1999.90;999.90;;;6.80;99.90;;;;;;5024063;28;20407;-75
2022/01/24 11:11:57;;;;;;;1999.90;999.90;;;6.70;99.90;;;;;;5031796;28;20486;-74
2022/01/24 11:14:25;;;;;;;1999.90;999.90;;;6.80;99.90;;;;;;5031804;28;20418;-74
2022/01/24 11:16:52;;;;;;;1999.90;999.90;;;6.80;99.90;;;;;;5030149;28;20426;-74
2022/01/24 11:19:31;;;;;;;1999.90;999.90;;;6.90;99.90;;;;;;5031384;28;20465;-74
2022/01/24 11:22:00;;;;;;;1999.90;999.90;;;6.90;99.90;;;;;;5031889;28;20856;-73
2022/01/24 11:24:37;;;;;;;1999.90;999.90;;;6.90;99.90;;;;;;5031784;28;20411;-73
2022/01/24 11:27:05;;;;;;;1999.90;999.90;;;6.90;99.90;;;;;;5031328;28;20465;-73
2022/01/24 11:29:31;;;;;;;1999.90;999.90;;;6.90;99.90;;;;;;5031972;28;20418;-73
2022/01/24 11:32:08;;;;;;;1999.90;999.90;;;6.80;99.90;;;;;;5031787;28;20403;-73
2022/01/24 11:34:37;;;;;;;1999.90;999.90;;;6.90;99.90;;;;;;5031220;28;20396;-73
2022/01/24 11:37:04;;;;;;;1999.90;999.90;;;7.20;99.90;;;;;;5031488;28;20518;-71
2022/01/24 11:39:30;;;;;;;1999.90;999.90;;;7.50;99.90;;;;;;5031378;28;20468;-71
2022/01/24 11:41:57;;;;;;;1999.90;999.90;;;7.60;99.90;;;;;;5031155;28;20411;-71
2022/01/24 11:44:23;;;;;;;1999.90;999.90;;;7.90;99.90;;;;;;5031539;28;20177;-72
2022/01/24 11:46:58;;;;;;;1999.90;999.90;;;8.30;99.90;;;;;;5031576;28;20473;-71
2022/01/24 11:49:42;;;;;;;1999.90;999.90;;;8.80;99.90;;;;;;5031453;28;20407;-72
2022/01/24 11:52:14;;;;;;;1999.90;999.90;;;9.10;99.90;;;;;;5031754;28;20412;-71
2022/01/24 11:55:01;;;;;;;1999.90;999.90;;;9.60;99.90;;;;;;5031581;28;20414;-71
2022/01/24 11:57:37;;;;;;;1999.90;999.90;;;10.10;99.90;;;;;;5030846;28;20467;-71
2022/01/24 12:00:06;;;;;;;1999.90;999.90;;;10.50;99.90;;;;;;5031254;28;20404;-71
2022/01/24 12:02:38;;;;;;;1999.90;999.90;;;10.40;99.90;;;;;;5031207;28;20410;-73
2022/01/24 12:05:11;;;;;;;1999.90;999.90;;;10.40;99.90;;;;;;5030449;28;20411;-72
2022/01/24 12:07:52;;;;;;;1999.90;999.90;;;10.20;99.90;;;;;;5031318;28;20954;-71
2022/01/24 12:10:24;;;;;;;1999.90;999.90;;;10.30;99.90;;;;;;5031782;28;20387;-70
2022/01/24 12:13:00;;;;;;;1999.90;999.90;;;10.80;99.90;;;;;;5030912;28;20400;-71
2022/01/24 12:15:57;;;;;;;1999.90;999.90;;;10.70;99.90;;;;;;5030267;28;20499;-70
2022/01/24 12:18:26;;;;;;;1999.90;999.90;;;10.50;99.90;;;;;;5009617;28;21279;-72
2022/01/24 12:20:57;;;;;;;1999.90;999.90;;;10.30;99.90;;;;;;5011368;28;20487;-70
2022/01/24 12:23:25;;;;;;;1999.90;999.90;;;10.50;99.90;;;;;;5040109;28;20429;-70
2022/01/24 12:26:03;;;;;;;1999.90;999.90;;;10.40;99.90;;;;;;5036237;28;20955;-75
2022/01/24 12:28:43;;;;;;;1999.90;999.90;;;10.70;99.90;;;;;;5033757;28;20447;-73
2022/01/24 12:31:13;;;;;;;1999.90;999.90;;;11.10;99.90;;;;;;5025784;28;20470;-74
2022/01/24 12:33:44;;;;;;;1999.90;999.90;;;11.00;99.90;;;;;;5027420;28;21037;-74
2022/01/24 12:36:11;;;;;;;1999.90;999.90;;;11.10;99.90;;;;;;5025160;28;20412;-73
2022/01/24 12:38:51;;;;;;;1999.90;999.90;;;11.20;99.90;;;;;;5036331;28;20519;-75
2022/01/24 12:41:33;;;;;;;1999.90;999.90;;;10.80;99.90;;;;;;5019377;28;20442;-74
2022/01/24 12:46:28;;;;;;;1999.90;999.90;;;10.90;99.90;;;;;;5027706;28;20832;-76
2022/01/24 12:48:56;;;;;;;1999.90;999.90;;;11.20;99.90;;;;;;5034706;28;20439;-76
2022/01/24 12:51:24;;;;;;;1999.90;999.90;;;11.50;99.90;;;;;;5026645;28;20454;-74
2022/01/24 12:53:51;;;;;;;1999.90;999.90;;;11.40;99.90;;;;;;5025450;28;20409;-74
2022/01/24 12:56:23;;;;;;;1999.90;999.90;;;11.50;99.90;;;;;;5034466;28;20423;-74
2022/01/24 12:58:49;;;;;;;1999.90;999.90;;;11.80;99.90;;;;;;5036197;28;20497;-77
2022/01/24 13:01:22;;;;;;;1999.90;999.90;;;12.10;99.90;;;;;;5025444;28;20407;-74
2022/01/24 13:04:12;;;;;;;1999.90;999.90;;;12.40;99.90;;;;;;5024854;28;20407;-74
2022/01/24 13:06:46;;;;;;;1999.90;999.90;;;13.00;99.90;;;;;;5016658;28;20835;-74
2022/01/24 13:09:24;;;;;;;1999.90;999.90;;;13.60;99.90;;;;;;5036304;28;20753;-74
2022/01/24 13:11:53;;;;;;;1999.90;999.90;;;14.00;99.90;;;;;;5011175;28;20509;-74
2022/01/24 13:14:31;;;;;;;1999.90;999.90;;;14.60;99.90;;;;;;5022131;28;20435;-75
2022/01/24 13:25:25;;;;;;;1999.90;999.90;;;14.70;99.90;;;;;;5024967;28;20422;-71
2022/01/24 13:27:59;;;;;;;1999.90;999.90;;;15.30;99.90;;;;;;5043251;28;20455;-71
2022/01/24 13:30:32;;;;;;;1999.90;999.90;;;15.70;99.90;;;;;;5028301;28;20438;-71
2022/01/24 13:33:03;;;;;;;1999.90;999.90;;;15.90;99.90;;;;;;5039753;28;20465;-71
2022/01/24 13:35:31;;;;;;;1999.90;999.90;;;16.10;99.90;;;;;;5022980;28;20399;-71
2022/01/24 13:38:18;;;;;;;1999.90;999.90;;;16.30;99.90;;;;;;5039054;28;20438;-72
2022/01/24 13:40:56;;;;;;;1999.90;999.90;;;16.40;99.90;;;;;;5017770;28;20407;-72
2022/01/24 13:43:45;;;;;;;1999.90;999.90;;;16.20;99.90;;;;;;5027649;28;20400;-75
2022/01/24 13:46:13;;;;;;;1999.90;999.90;;;16.70;99.80;;;;;;5028489;28;20460;-74
2022/01/24 13:48:56;;;;;;;1999.90;999.90;;;17.00;96.20;;;;;;5039152;28;20467;-76
2022/01/24 13:51:34;;;;;;;1999.90;999.90;;;17.30;95.90;;;;;;5023499;28;20540;-76
2022/01/24 13:54:01;;;;;;;1999.90;999.90;;;17.40;92.70;;;;;;5026347;28;20400;-75
2022/01/24 13:56:42;;;;;;;1999.90;999.90;;;17.40;91.10;;;;;;5038133;28;20493;-76
2022/01/24 13:59:21;;;;;;;1999.90;999.90;;;17.70;90.30;;;;;;5039865;28;20404;-75
2022/01/24 14:01:52;;;;;;;1999.90;999.90;;;18.10;86.30;;;;;;5032225;28;20404;-75
2022/01/24 14:04:49;;;;;;;1999.90;999.90;;;18.20;82.10;;;;;;5024996;28;20489;-77
2022/01/24 14:07:25;;;;;;;1999.90;999.90;;;18.50;77.90;;;;;;5022520;28;20579;-75